Date,TemperatureHighF,TemperatureAvgF,TemperatureLowF,DewpointHighF,DewpointAvgF,DewpointLowF,HumidityHigh,HumidityAvg,HumidityLow,PressureMaxIn,PressureMinIn,WindSpeedMaxMPH,WindSpeedAvgMPH,GustSpeedMaxMPH,PrecipitationSumIn
2014-5-13,65,64,59,52,49,48,77,60,55,30.22,30.10,10,8,20,0.01
2014-5-14,71,61,52,52,46,40,92,64,32,30.24,30.14,17,7,25,0.16
2014-5-15,83,67,52,48,44,36,81,50,19,30.22,30.01,10,4,23,0.00
2014-5-16,85,72,56,56,50,45,78,49,28,30.07,29.83,13,5,24,0.00
2014-5-17,81,71,60,63,52,-100,68,53,37,29.96,29.81,12,6,23,0.00
2014-5-18,83,73,63,63,61,56,90,67,49,30.03,29.90,15,9,25,0.00
2014-5-27,76,69,64,69,65,62,95,86,74,29.94,29.81,10,4,20,0.27
2014-5-28,82,71,65,66,65,63,96,83,55,29.90,29.81,9,3,15,0.01
2014-5-29,88,77,67,68,66,63,88,70,49,29.86,29.76,4,2,8,0.00
2014-5-30,82,75,70,69,67,65,85,78,64,29.83,29.79,6,2,12,0.00
2014-5-31,88,73,72,71,56,-100,91,67,57,29.90,29.81,5,2,12,0.00
2014-6-1,89,81,73,72,71,70,91,72,55,29.91,29.77,10,6,20,0.00
2014-6-2,87,82,74,72,71,70,87,71,59,29.94,29.79,10,6,21,0.00
2014-6-3,88,80,73,73,71,70,91,76,59,29.96,29.83,10,6,22,0.00
2014-6-4,90,82,74,74,72,71,91,74,58,29.82,29.71,11,8,22,0.00
2014-6-5,87,81,74,74,72,70,91,74,64,29.80,29.73,13,9,24,0.00
2014-6-6,91,82,74,74,72,71,91,72,55,29.89,29.76,12,8,20,0.00
2014-6-7,92,78,74,73,61,-100,89,66,52,29.88,29.78,12,8,26,0.00
2014-6-8,85,78,68,73,70,66,92,78,65,29.95,29.73,12,6,20,0.23
2014-6-9,79,72,63,73,66,61,94,82,61,29.80,29.68,9,5,20,0.57
2014-6-17,89,89,89,73,73,73,59,59,59,29.83,29.83,7,7,20,0.00
2014-6-18,86,81,76,74,72,70,86,77,68,29.91,29.85,12,10,22,0.01
2014-6-19,82,79,75,73,72,71,89,80,72,29.95,29.89,9,6,16,0.00
2014-6-20,88,82,75,73,71,69,87,70,54,30.03,29.93,8,6,14,0.00
2014-6-21,87,70,76,73,50,-100,85,67,64,29.97,29.85,6,4,10,0.00
2014-6-22,79,72,69,72,70,67,95,91,80,29.95,29.83,13,8,24,0.99
2014-6-23,87,80,67,72,69,66,96,72,60,29.87,29.81,7,4,12,0.53
2014-6-24,83,75,72,75,70,68,90,86,78,29.97,29.93,3,1,7,0.13
2014-6-25,78,78,78,73,73,73,84,84,84,29.97,29.97,5,5,12,0.00
2014-6-26,76,73,71,72,70,69,95,92,86,29.96,29.89,9,5,16,0.00
2014-6-27,89,89,89,73,73,73,60,60,60,29.72,29.72,17,17,26,0.00
2014-6-28,-200,0,200,-100,-100,-100,0,0,100,29.83,29.83,9,9,15,0.00
2014-6-29,89,83,80,75,74,74,82,75,63,29.88,29.84,9,8,18,0.00
2014-6-30,91,83,79,74,73,73,83,73,55,29.86,29.85,15,10,26,0.00
2014-7-16,88,78,75,72,67,55,89,70,50,29.94,29.83,3,2,9,0.04
2014-7-17,77,76,72,73,72,70,95,88,85,29.85,29.83,7,5,13,0.20
2014-7-18,73,69,66,68,66,64,94,90,77,29.96,29.90,7,5,12,0.03
2014-7-19,74,72,70,66,65,65,83,80,75,30.01,29.98,2,1,6,0.00
2014-7-20,89,74,65,75,68,63,94,82,63,29.97,29.91,4,3,12,0.00
2014-7-21,81,78,77,75,74,74,89,87,82,29.92,29.91,6,3,10,0.00
2014-7-22,91,85,81,76,74,73,82,72,56,30.00,29.96,2,2,6,0.00
2014-7-23,90,81,76,71,71,70,83,72,53,30.03,30.01,4,1,8,0.00
2014-7-24,98,87,76,71,68,66,75,56,36,29.97,29.91,6,3,10,0.00
2014-7-25,91,88,77,72,70,69,78,58,50,29.95,29.85,7,5,14,0.00
2014-7-26,-200,0,200,-100,0,200,0,0,100,29.88,29.88,7,7,13,0.00
2014-7-27,92,86,83,72,71,69,70,63,47,29.91,29.89,6,5,13,0.00
2014-7-28,85,85,85,71,71,71,63,63,63,29.95,29.95,6,6,10,0.00
2014-7-29,83,79,77,68,64,62,71,59,54,30.11,30.01,7,2,10,0.03
2014-7-30,90,80,74,72,68,66,79,68,55,29.98,29.83,10,4,14,0.00
2014-7-31,80,46,72,72,42,67,86,81,77,29.93,29.86,7,4,14,0.00
2014-8-1,78,76,70,68,68,68,94,78,72,30.01,29.96,5,4,9,0.02
2014-8-2,88,80,69,68,67,66,92,67,49,30.06,29.96,7,3,12,0.00
2014-11-1,63,49,37,37,33,31,83,55,33,30.42,30.26,7,1,12,0.00
2014-11-2,68,56,45,50,42,34,71,59,45,30.33,30.14,12,8,24,0.00
2014-11-3,74,65,55,60,56,49,86,72,60,30.15,30.02,14,9,28,0.00
2014-11-4,71,61,53,63,58,52,95,89,71,30.20,30.00,14,6,29,0.98
2014-11-5,56,54,51,54,52,50,95,95,92,30.23,30.14,7,2,12,0.09
2014-11-6,70,57,45,53,47,43,95,73,44,30.33,30.23,7,2,12,0.01
2014-11-7,68,54,41,45,42,38,95,68,42,30.28,30.00,10,3,16,0.01
2014-11-18,57,43,26,25,22,21,82,48,27,30.49,30.31,10,5,15,0.00
2014-11-19,66,50,35,38,32,22,70,50,34,30.29,30.10,10,5,20,0.00
2014-11-20,72,58,42,59,50,39,90,75,47,30.11,29.94,12,5,23,0.00
2014-11-21,68,64,60,63,60,58,94,90,83,30.08,29.98,12,7,21,0.00
2014-11-22,63,56,57,61,55,55,96,90,94,30.04,29.68,7,4,15,0.91
2014-11-23,76,60,51,57,49,41,96,72,29,29.76,29.39,22,10,35,0.46
2014-11-24,60,51,41,37,31,26,76,50,27,30.15,29.88,9,2,13,0.00
2014-11-25,62,48,34,35,32,29,88,56,31,30.29,30.10,10,2,18,0.00
2014-11-26,64,53,44,40,34,29,62,49,35,30.37,30.01,12,4,16,0.00
2014-11-27,61,49,39,35,29,25,66,48,28,30.54,30.35,5,2,9,0.00
2014-11-28,71,56,42,53,43,30,70,62,53,30.34,29.96,16,7,30,0.00
2014-11-29,78,63,49,60,52,46,92,68,45,29.95,29.81,17,9,29,0.00
2014-11-30,79,70,62,62,60,59,92,74,53,30.05,29.86,18,9,33,0.00
2014-12-1,65,40,33,61,27,20,88,61,48,30.47,30.06,16,10,26,0.00
2014-12-2,50,40,31,41,27,19,73,60,47,30.46,30.14,9,4,18,0.00
2014-12-3,59,54,48,55,49,40,89,84,72,30.19,30.10,9,5,18,0.00
2014-12-4,64,60,56,60,57,53,93,91,83,30.15,30.01,10,5,20,0.00
2014-12-5,77,67,58,65,61,54,96,81,59,30.16,29.93,12,7,21,0.01
2014-12-6,65,56,48,53,48,44,87,75,60,30.39,30.18,11,6,16,0.01
2014-12-7,52,48,44,47,45,42,95,89,80,30.40,30.25,8,2,13,0.00
2014-12-8,60,48,39,50,44,37,95,88,70,30.37,30.27,7,2,12,0.01
2014-12-9,57,46,39,52,44,38,97,91,76,30.37,30.24,4,0,7,0.01
2014-12-10,61,46,40,51,42,38,96,76,69,30.24,30.11,7,2,13,0.00
2014-12-11,64,58,53,59,53,49,92,83,79,30.17,30.09,9,4,16,0.00
2014-12-12,70,63,58,61,58,55,92,85,72,30.22,30.12,9,5,15,0.00
2014-12-13,70,63,57,59,57,53,91,82,66,30.17,30.00,13,7,26,0.00
2014-12-14,67,62,61,64,60,58,92,88,86,30.00,29.75,14,8,24,0.04
2014-12-15,64,58,51,61,41,34,92,56,38,30.16,29.77,12,6,21,0.01
2014-12-16,54,46,40,35,32,29,77,58,49,30.37,30.16,11,6,20,0.00
2014-12-17,48,44,40,42,38,34,94,78,68,30.29,30.04,7,2,14,0.03
2014-12-18,49,46,43,46,44,41,96,92,86,30.16,30.08,6,2,10,0.04
2014-12-19,48,47,45,46,44,43,94,92,89,30.22,30.09,7,4,12,0.06
2014-12-20,47,39,45,45,36,42,93,87,89,30.25,30.15,6,2,8,0.04